Time;durP1;ratioP1;P1;durP2;ratioP2;P2;SDS_P1;SDS_P2;PMS_P1;PMS_P2;Temp;Humidity;BMP_temperature;BMP_pressure;BME280_temperature;BME280_humidity;BME280_pressure;Samples;Min_cycle;Max_cycle;Signal;HPM_P1;HPM_P2
2022/09/08 00:02:10;;;;;;;10.57;6.30;;;16.90;99.90;;;;;;5085289;28;20416;-75
2022/09/08 00:04:36;;;;;;;9.77;5.60;;;16.90;99.90;;;;;;5068591;28;20169;-75
2022/09/08 00:07:02;;;;;;;9.20;5.72;;;16.90;99.90;;;;;;5102273;28;20043;-75
2022/09/08 00:09:32;;;;;;;11.05;6.65;;;16.80;99.90;;;;;;5102303;28;20032;-75
2022/09/08 00:11:58;;;;;;;11.07;6.47;;;16.90;99.90;;;;;;5102078;28;20128;-75
2022/09/08 00:14:24;;;;;;;11.30;6.22;;;16.90;99.90;;;;;;5068634;28;20044;-75
2022/09/08 00:16:50;;;;;;;12.07;6.95;;;16.90;99.90;;;;;;5068416;28;20391;-75
2022/09/08 00:19:16;;;;;;;8.95;5.43;;;16.90;99.90;;;;;;5068742;28;20037;-75
2022/09/08 00:21:42;;;;;;;10.95;6.75;;;16.80;99.90;;;;;;5068354;28;20509;-75
2022/09/08 00:24:07;;;;;;;12.68;6.50;;;16.90;99.90;;;;;;5067777;28;20053;-74
2022/09/08 00:26:34;;;;;;;12.10;6.20;;;16.90;99.90;;;;;;5085250;28;20153;-75
2022/09/08 00:28:59;;;;;;;10.27;6.28;;;16.90;99.90;;;;;;5102275;28;20496;-75
2022/09/08 00:31:25;;;;;;;11.93;6.65;;;16.80;99.90;;;;;;5068121;28;20136;-75
2022/09/08 00:33:50;;;;;;;10.52;6.60;;;16.90;99.90;;;;;;5085324;28;20395;-75
2022/09/08 00:36:17;;;;;;;10.75;6.63;;;16.90;99.90;;;;;;5102157;28;20041;-75
2022/09/08 00:38:53;;;;;;;10.70;6.10;;;16.90;99.90;;;;;;5051686;28;20068;-75
2022/09/08 00:41:20;;;;;;;13.15;7.32;;;16.80;99.90;;;;;;5101820;28;20557;-75
2022/09/08 00:44:01;;;;;;;11.45;6.22;;;16.80;99.90;;;;;;5051806;28;20177;-75
2022/09/08 00:46:35;;;;;;;11.95;6.75;;;16.80;99.90;;;;;;5051781;28;20041;-75
2022/09/08 00:49:16;;;;;;;10.73;6.40;;;16.70;99.90;;;;;;5071847;28;20045;-75
2022/09/08 00:51:46;;;;;;;14.35;7.35;;;16.80;99.90;;;;;;5071801;28;20553;-75
2022/09/08 00:54:15;;;;;;;11.50;7.05;;;16.80;99.90;;;;;;5071529;28;20086;-75
2022/09/08 00:56:43;;;;;;;13.63;7.90;;;16.80;99.90;;;;;;5105563;28;20040;-75
2022/09/08 00:59:10;;;;;;;10.93;6.03;;;16.70;99.90;;;;;;5055065;28;20063;-75
2022/09/08 01:01:36;;;;;;;10.15;6.57;;;16.80;99.90;;;;;;5071811;28;20040;-75
2022/09/08 01:04:03;;;;;;;10.95;5.72;;;16.80;99.90;;;;;;5071223;28;20102;-75
2022/09/08 01:15:01;;;;;;;12.35;7.50;;;16.80;99.90;;;;;;5105124;28;20490;-75
2022/09/08 01:17:29;;;;;;;12.13;7.00;;;16.80;99.90;;;;;;5071359;28;20032;-75
2022/09/08 01:19:58;;;;;;;12.60;7.40;;;16.80;99.90;;;;;;5105219;28;20123;-75
2022/09/08 01:22:48;;;;;;;12.23;7.07;;;16.70;99.90;;;;;;5105305;28;20048;-75
2022/09/08 01:25:33;;;;;;;11.73;7.05;;;16.80;99.90;;;;;;5054442;28;20045;-75
2022/09/08 01:28:10;;;;;;;15.33;7.80;;;16.80;99.90;;;;;;5105368;28;20044;-75
2022/09/08 01:30:36;;;;;;;12.60;7.28;;;16.80;99.90;;;;;;5054971;28;20410;-75
2022/09/08 01:33:05;;;;;;;11.77;6.43;;;16.80;99.90;;;;;;5054256;28;20119;-75
2022/09/08 01:35:38;;;;;;;11.30;6.43;;;16.80;99.90;;;;;;5054055;28;20033;-75
2022/09/08 01:38:04;;;;;;;11.82;6.85;;;16.80;99.90;;;;;;5054170;28;20544;-75
2022/09/08 01:40:30;;;;;;;15.27;7.60;;;16.80;99.90;;;;;;5104693;28;20033;-75
2022/09/08 01:42:56;;;;;;;14.23;7.47;;;16.90;99.90;;;;;;5104643;28;20182;-75
2022/09/08 01:45:23;;;;;;;12.32;7.07;;;16.80;99.90;;;;;;5104864;28;20083;-75
2022/09/08 01:47:49;;;;;;;12.27;7.50;;;16.80;99.90;;;;;;5104449;28;20048;-75
2022/09/08 01:50:15;;;;;;;14.23;8.25;;;16.80;99.90;;;;;;5104849;28;20174;-75
2022/09/08 01:52:41;;;;;;;14.50;8.25;;;16.80;99.90;;;;;;5087571;28;20127;-76
2022/09/08 01:55:06;;;;;;;15.65;7.30;;;16.80;99.90;;;;;;5070518;28;20045;-75
2022/09/08 01:57:32;;;;;;;12.10;7.30;;;16.80;99.90;;;;;;5104768;28;20033;-75
2022/09/08 01:59:57;;;;;;;14.35;7.43;;;16.80;99.90;;;;;;5070048;28;20032;-75
2022/09/08 02:02:23;;;;;;;13.80;7.47;;;16.90;99.90;;;;;;5070179;28;20508;-75
2022/09/08 02:04:48;;;;;;;14.73;8.02;;;16.90;99.90;;;;;;5070621;28;20257;-75
2022/09/08 02:07:14;;;;;;;14.60;7.75;;;16.90;99.90;;;;;;5070839;28;20040;-75
2022/09/08 02:09:40;;;;;;;14.90;7.07;;;16.90;99.90;;;;;;5070398;28;20519;-75
2022/09/08 02:12:05;;;;;;;12.45;7.30;;;16.90;99.90;;;;;;5070242;28;20055;-75
2022/09/08 02:14:31;;;;;;;13.50;7.53;;;16.90;99.90;;;;;;5103979;28;20132;-75
2022/09/08 02:16:57;;;;;;;15.25;8.23;;;16.90;99.90;;;;;;5069973;28;20044;-75
2022/09/08 02:19:22;;;;;;;14.63;8.10;;;16.90;99.90;;;;;;5087028;28;20517;-75
2022/09/08 02:21:48;;;;;;;17.38;8.73;;;16.90;99.90;;;;;;5104115;28;20040;-75
2022/09/08 02:24:14;;;;;;;13.07;7.63;;;16.90;99.90;;;;;;5086612;28;20079;-75
2022/09/08 02:26:40;;;;;;;15.07;8.48;;;16.90;99.90;;;;;;5070474;28;20101;-75
2022/09/08 02:29:08;;;;;;;15.02;7.90;;;16.90;99.90;;;;;;5053393;28;20044;-75
2022/09/08 02:31:35;;;;;;;18.42;8.07;;;16.90;99.90;;;;;;5103665;28;20033;-75
2022/09/08 02:34:01;;;;;;;17.90;9.48;;;16.90;99.90;;;;;;5104118;28;20051;-75
2022/09/08 02:36:27;;;;;;;17.40;8.57;;;16.90;99.90;;;;;;5069640;28;20464;-75
2022/09/08 02:38:54;;;;;;;16.23;9.57;;;16.90;99.90;;;;;;5069730;28;20036;-75
2022/09/08 02:41:21;;;;;;;14.95;8.65;;;16.90;99.90;;;;;;5053086;28;20037;-75
2022/09/08 02:43:46;;;;;;;16.02;8.25;;;16.90;99.90;;;;;;5103660;28;20048;-75
2022/09/08 02:46:12;;;;;;;16.05;8.55;;;16.90;99.90;;;;;;5053083;28;20044;-75
2022/09/08 02:48:38;;;;;;;15.25;8.98;;;16.90;99.90;;;;;;5069771;28;20044;-75
2022/09/08 02:51:07;;;;;;;14.82;8.35;;;16.80;99.90;;;;;;5069807;28;20041;-75
2022/09/08 02:53:33;;;;;;;19.15;9.13;;;16.80;99.90;;;;;;5069557;28;20097;-75
2022/09/08 02:55:59;;;;;;;14.00;7.40;;;16.90;99.90;;;;;;5069433;28;20032;-75
2022/09/08 02:58:25;;;;;;;15.25;7.90;;;16.90;99.90;;;;;;5069183;28;20502;-75
2022/09/08 03:00:51;;;;;;;16.48;9.10;;;16.80;99.90;;;;;;5086152;28;20048;-75
2022/09/08 03:03:18;;;;;;;15.75;8.93;;;16.80;99.90;;;;;;5052811;28;20487;-75
2022/09/08 03:05:43;;;;;;;16.33;9.10;;;16.90;99.90;;;;;;5103430;28;20076;-75
2022/09/08 03:08:09;;;;;;;17.05;9.50;;;16.90;99.90;;;;;;5086065;28;20579;-75
2022/09/08 03:10:36;;;;;;;17.02;8.82;;;16.80;99.90;;;;;;5069356;28;20098;-75
2022/09/08 03:13:02;;;;;;;14.93;8.88;;;16.80;99.90;;;;;;5085687;28;20490;-75
2022/09/08 03:15:30;;;;;;;15.73;9.05;;;16.90;99.90;;;;;;5103264;28;20037;-75
2022/09/08 03:17:56;;;;;;;14.82;8.13;;;16.90;99.90;;;;;;5070654;28;20062;-75
2022/09/08 03:20:22;;;;;;;19.02;9.93;;;16.90;99.90;;;;;;5102894;28;20036;-75
2022/09/08 03:22:49;;;;;;;15.10;7.88;;;16.80;99.90;;;;;;5102840;28;20382;-75
2022/09/08 03:25:16;;;;;;;16.05;8.55;;;16.90;99.90;;;;;;5102853;28;20049;-75
2022/09/08 03:27:42;;;;;;;16.52;9.40;;;16.90;99.90;;;;;;5102878;28;20426;-75
2022/09/08 03:30:10;;;;;;;16.10;9.23;;;16.90;99.90;;;;;;5068917;28;20047;-75
2022/09/08 03:32:38;;;;;;;18.77;9.38;;;16.90;99.90;;;;;;5052234;28;20032;-75
2022/09/08 03:35:07;;;;;;;16.38;8.05;;;16.90;99.90;;;;;;5102562;28;20076;-75
2022/09/08 03:37:33;;;;;;;17.50;9.32;;;16.90;99.90;;;;;;5069067;28;20058;-75
2022/09/08 03:39:59;;;;;;;17.52;9.35;;;16.90;99.90;;;;;;5052367;28;20494;-75
2022/09/08 03:42:24;;;;;;;18.08;9.57;;;16.90;99.90;;;;;;5068691;28;20072;-75
2022/09/08 03:44:50;;;;;;;16.00;8.65;;;16.90;99.90;;;;;;5068638;28;20105;-75
2022/09/08 03:47:16;;;;;;;17.48;8.90;;;16.80;99.90;;;;;;5068781;28;20053;-75
2022/09/08 03:49:42;;;;;;;17.45;9.02;;;16.80;99.90;;;;;;5102844;28;20044;-75
2022/09/08 03:52:08;;;;;;;24.00;8.32;;;16.80;99.90;;;;;;5052013;28;20080;-75
2022/09/08 03:54:48;;;;;;;15.52;8.43;;;16.80;99.90;;;;;;5068626;28;20485;-75
2022/09/08 03:57:24;;;;;;;18.75;9.68;;;16.80;99.90;;;;;;5102485;28;20074;-75
2022/09/08 03:59:51;;;;;;;19.67;8.85;;;16.80;99.90;;;;;;5068619;28;20044;-75
2022/09/08 04:02:18;;;;;;;17.23;9.18;;;16.80;99.90;;;;;;5052022;28;20075;-75
2022/09/08 04:04:48;;;;;;;15.98;8.77;;;16.80;99.90;;;;;;5069000;28;20044;-75
2022/09/08 04:07:14;;;;;;;16.90;8.63;;;16.80;99.90;;;;;;5051770;28;20037;-75
2022/09/08 04:09:41;;;;;;;15.73;8.65;;;16.80;99.90;;;;;;5068471;28;20044;-75
2022/09/08 04:12:07;;;;;;;16.10;8.43;;;16.90;99.90;;;;;;5102358;28;20123;-74
2022/09/08 04:14:33;;;;;;;18.73;9.55;;;16.80;99.90;;;;;;5051841;28;20450;-75
2022/09/08 04:16:58;;;;;;;17.60;9.38;;;16.90;99.90;;;;;;5051899;28;20037;-75
2022/09/08 04:19:24;;;;;;;16.27;8.73;;;16.90;99.90;;;;;;5085155;28;20479;-75
2022/09/08 04:21:50;;;;;;;16.63;9.15;;;16.80;99.90;;;;;;5085652;28;20101;-75
2022/09/08 04:24:16;;;;;;;18.38;9.32;;;16.80;99.90;;;;;;5055564;28;20056;-75
2022/09/08 04:30:26;;;;;;;18.08;9.45;;;16.80;99.90;;;;;;5073462;28;20036;-75
2022/09/08 04:32:52;;;;;;;15.95;8.27;;;16.80;99.90;;;;;;5106002;28;20473;-75
2022/09/08 06:04:14;;;;;;;15.45;8.20;;;16.80;99.90;;;;;;5033929;28;20045;-75
2022/09/08 06:06:40;;;;;;;17.48;8.35;;;16.70;99.90;;;;;;5010476;28;20048;-75
2022/09/08 06:09:07;;;;;;;17.38;9.40;;;16.80;99.90;;;;;;5011024;28;20396;-74
2022/09/08 06:11:34;;;;;;;22.05;11.45;;;16.70;99.90;;;;;;5011154;28;20503;-75
2022/09/08 06:14:01;;;;;;;18.40;9.55;;;16.70;99.90;;;;;;4994730;28;20102;-75
2022/09/08 06:16:27;;;;;;;17.58;9.30;;;16.60;99.90;;;;;;5010892;28;20044;-75
2022/09/08 06:18:53;;;;;;;19.27;9.43;;;16.70;99.90;;;;;;4994682;28;20537;-75
2022/09/08 06:21:24;;;;;;;19.20;9.18;;;16.70;99.90;;;;;;5011046;28;20041;-75
2022/09/08 06:23:56;;;;;;;20.73;10.00;;;16.70;99.90;;;;;;5011086;28;20510;-75
2022/09/08 06:26:43;;;;;;;19.90;9.38;;;16.70;99.90;;;;;;4994528;28;20044;-75
2022/09/08 06:29:13;;;;;;;14.30;8.25;;;16.70;99.90;;;;;;5010480;28;20399;-76
2022/09/08 06:32:05;;;;;;;18.02;9.57;;;16.70;99.90;;;;;;5010657;28;20079;-76
2022/09/08 06:34:40;;;;;;;19.48;9.32;;;16.70;99.90;;;;;;5010656;28;20750;-77
2022/09/08 06:37:09;;;;;;;;;;;16.70;99.90;;;;;;5011342;28;20167;-77
2022/09/08 06:39:50;;;;;;;19.45;9.15;;;16.60;99.90;;;;;;5010568;28;19921;-77
2022/09/08 06:42:30;;;;;;;18.92;9.52;;;16.70;99.90;;;;;;5010516;28;20049;-77
2022/09/08 06:44:59;;;;;;;16.90;8.90;;;16.70;99.90;;;;;;4993971;28;20045;-77
2022/09/08 06:47:33;;;;;;;20.00;8.82;;;16.60;99.90;;;;;;5010416;28;20045;-76
2022/09/08 06:49:59;;;;;;;14.27;7.95;;;16.60;99.90;;;;;;5010451;28;20407;-76
2022/09/08 06:52:52;;;;;;;18.02;9.02;;;16.70;99.90;;;;;;5010585;28;20037;-76
2022/09/08 06:55:43;;;;;;;19.17;9.07;;;16.60;99.90;;;;;;5008387;28;20489;-76
2022/09/08 06:58:31;;;;;;;19.30;7.50;;;16.60;99.90;;;;;;4993848;28;20064;-76
2022/09/08 07:01:06;;;;;;;17.48;9.00;;;16.70;99.90;;;;;;4993910;28;20052;-76
2022/09/08 07:03:54;;;;;;;16.50;8.02;;;16.60;99.90;;;;;;5010294;28;20053;-76
2022/09/08 07:06:24;;;;;;;18.15;8.32;;;16.70;99.90;;;;;;4993791;28;20499;-76
2022/09/08 07:09:13;;;;;;;19.65;9.02;;;16.60;99.90;;;;;;5009972;28;20045;-77
2022/09/08 07:11:46;;;;;;;20.42;8.93;;;16.70;99.90;;;;;;5010129;28;20536;-76
2022/09/08 07:14:18;;;;;;;17.17;7.97;;;16.70;99.90;;;;;;4993536;28;20037;-76
2022/09/08 07:16:48;;;;;;;14.77;7.38;;;16.70;99.90;;;;;;5009825;28;20136;-77
2022/09/08 07:19:32;;;;;;;14.23;7.35;;;16.70;99.90;;;;;;4993102;28;20080;-76
2022/09/08 07:22:14;;;;;;;17.80;8.50;;;16.70;99.90;;;;;;4993785;28;20344;-76
2022/09/08 07:24:41;;;;;;;16.23;7.13;;;16.70;99.90;;;;;;4993473;28;20045;-76
2022/09/08 07:27:12;;;;;;;16.17;7.53;;;16.60;99.90;;;;;;5009871;28;20095;-76
2022/09/08 07:29:46;;;;;;;16.73;8.32;;;16.60;99.90;;;;;;4993182;28;20094;-77
2022/09/08 07:32:17;;;;;;;14.98;7.32;;;16.60;99.90;;;;;;4993367;28;20053;-77
2022/09/08 07:34:49;;;;;;;15.60;7.25;;;16.60;99.90;;;;;;5027481;28;20045;-77
2022/09/08 07:37:30;;;;;;;19.45;8.52;;;16.70;99.90;;;;;;5009533;28;20179;-77
2022/09/08 07:40:04;;;;;;;17.15;7.88;;;16.60;99.90;;;;;;5009649;28;20514;-76
2022/09/08 07:42:31;;;;;;;13.98;7.38;;;16.60;99.90;;;;;;5009412;28;20052;-76
2022/09/08 07:44:59;;;;;;;11.13;6.20;;;16.60;99.90;;;;;;5009942;28;20116;-77
2022/09/08 07:47:25;;;;;;;18.17;7.53;;;16.60;99.90;;;;;;4993443;28;20073;-77
2022/09/08 07:49:54;;;;;;;18.17;8.52;;;16.60;99.90;;;;;;5009610;28;20084;-76
2022/09/08 07:52:38;;;;;;;15.35;7.15;;;16.60;99.90;;;;;;4993024;28;20055;-77
2022/09/08 07:55:32;;;;;;;14.52;7.35;;;16.60;99.90;;;;;;4993190;28;20045;-76
2022/09/08 07:58:18;;;;;;;18.58;7.30;;;16.60;99.90;;;;;;5008697;28;20057;-76
2022/09/08 08:00:51;;;;;;;;;;;16.60;99.90;;;;;;4993440;28;20502;-76
2022/09/08 08:03:31;;;;;;;17.45;7.85;;;16.60;99.90;;;;;;5009182;28;20378;-76
2022/09/08 08:06:03;;;;;;;16.83;7.65;;;16.60;99.90;;;;;;5009256;28;20133;-76
2022/09/08 08:08:32;;;;;;;16.13;8.57;;;16.60;99.90;;;;;;5009267;28;20051;-76
2022/09/08 08:11:18;;;;;;;16.58;7.72;;;16.60;99.90;;;;;;5009491;28;20038;-76
2022/09/08 08:13:56;;;;;;;16.05;8.05;;;16.60;99.90;;;;;;4992942;28;20075;-77
2022/09/08 08:16:44;;;;;;;14.68;7.38;;;16.70;99.90;;;;;;4993010;28;20507;-76
2022/09/08 08:19:27;;;;;;;12.68;6.65;;;16.60;99.90;;;;;;4992769;28;20045;-76
2022/09/08 08:22:06;;;;;;;17.83;9.38;;;16.60;99.90;;;;;;5009256;28;20042;-77
2022/09/08 08:24:41;;;;;;;16.15;7.68;;;16.60;99.90;;;;;;5009305;28;20041;-76
2022/09/08 08:27:34;;;;;;;17.50;7.97;;;16.50;99.90;;;;;;5009275;28;20048;-77
2022/09/08 08:30:18;;;;;;;18.23;8.13;;;16.70;99.90;;;;;;5009001;28;20045;-77
2022/09/08 08:33:17;;;;;;;17.50;9.85;;;16.70;99.90;;;;;;5009008;28;20346;-76
2022/09/08 08:36:06;;;;;;;16.42;8.82;;;16.70;99.90;;;;;;4998050;28;20132;-76
2022/09/08 08:38:40;;;;;;;15.55;7.50;;;16.60;99.90;;;;;;4998177;28;20056;-77
2022/09/08 08:41:27;;;;;;;16.63;8.55;;;16.60;99.90;;;;;;4992553;28;20073;-77
2022/09/08 08:44:02;;;;;;;16.40;7.95;;;16.60;99.90;;;;;;4993083;28;20444;-77
2022/09/08 08:47:03;;;;;;;15.02;6.93;;;16.60;99.90;;;;;;5008764;28;20601;-77
2022/09/08 08:49:37;;;;;;;13.68;6.65;;;16.70;99.90;;;;;;4966073;28;20072;-77
2022/09/08 08:52:20;;;;;;;14.97;8.00;;;16.70;99.90;;;;;;5008918;28;20099;-77
2022/09/08 08:55:25;;;;;;;14.05;6.55;;;16.70;99.90;;;;;;5008878;28;20301;-77
2022/09/08 08:58:07;;;;;;;13.40;6.40;;;16.70;99.90;;;;;;4992859;28;20090;-77
2022/09/08 09:00:50;;;;;;;10.30;5.63;;;16.70;99.90;;;;;;4992496;28;20061;-77
2022/09/08 09:03:34;;;;;;;10.07;5.07;;;16.70;99.90;;;;;;4992675;28;20045;-77
2022/09/08 09:06:14;;;;;;;10.18;4.63;;;16.70;99.90;;;;;;5008823;28;20427;-77
2022/09/08 09:09:09;;;;;;;7.55;4.13;;;16.70;99.90;;;;;;4994468;28;20052;-77
2022/09/08 09:12:03;;;;;;;8.18;4.05;;;16.70;99.90;;;;;;4995917;28;20048;-76
2022/09/08 09:15:05;;;;;;;6.03;3.38;;;16.70;99.90;;;;;;4996073;28;20041;-76
2022/09/08 09:17:40;;;;;;;8.98;3.10;;;16.70;99.90;;;;;;4958899;28;20174;-76
2022/09/08 09:20:12;;;;;;;;;;;16.70;99.90;;;;;;5012334;28;20041;-76
2022/09/08 09:22:43;;;;;;;4.70;2.33;;;16.70;99.90;;;;;;5012047;28;19927;-76
2022/09/08 09:25:17;;;;;;;5.75;2.97;;;16.70;99.90;;;;;;5011948;28;20045;-76
2022/09/08 09:27:46;;;;;;;6.95;2.90;;;16.80;99.90;;;;;;5012166;28;20172;-76
2022/09/08 09:30:12;;;;;;;3.95;2.45;;;16.80;99.90;;;;;;5011642;28;20049;-76
2022/09/08 09:33:10;;;;;;;5.72;2.75;;;16.80;99.90;;;;;;4995378;28;20096;-76
2022/09/08 09:36:03;;;;;;;4.53;2.25;;;16.80;99.90;;;;;;5001225;28;20049;-76
2022/09/08 09:38:37;;;;;;;4.05;2.58;;;16.90;99.90;;;;;;5011879;28;20046;-76
2022/09/08 09:41:18;;;;;;;3.90;2.50;;;16.90;99.90;;;;;;5011615;28;20044;-76
2022/09/08 09:44:02;;;;;;;5.82;2.17;;;16.90;99.90;;;;;;4995200;28;20076;-76
2022/09/08 09:46:55;;;;;;;4.55;2.03;;;16.90;99.90;;;;;;4995480;28;20073;-77
2022/09/08 09:49:42;;;;;;;5.05;2.20;;;17.00;99.90;;;;;;5011590;28;20041;-76
2022/09/08 09:52:31;;;;;;;4.20;2.13;;;17.00;99.90;;;;;;5011714;28;20131;-76
2022/09/08 09:55:19;;;;;;;5.28;2.35;;;17.00;99.90;;;;;;4995114;28;20053;-76
2022/09/08 09:58:13;;;;;;;3.30;1.70;;;17.00;99.90;;;;;;5011365;28;20060;-76
2022/09/08 10:00:41;;;;;;;3.30;2.03;;;17.10;99.90;;;;;;5011670;28;20060;-76
2022/09/08 10:03:37;;;;;;;2.97;1.80;;;17.00;99.90;;;;;;4995138;28;20055;-76
2022/09/08 10:06:22;;;;;;;3.50;1.70;;;17.00;99.90;;;;;;5010872;28;20464;-76
2022/09/08 10:09:22;;;;;;;3.88;2.00;;;17.00;99.90;;;;;;4995159;28;20068;-76
2022/09/08 10:12:13;;;;;;;3.30;1.48;;;17.00;99.90;;;;;;4994927;28;20371;-76
2022/09/08 10:14:59;;;;;;;2.55;1.38;;;17.00;99.90;;;;;;5011021;28;20427;-76
2022/09/08 10:17:56;;;;;;;2.33;1.38;;;16.90;99.90;;;;;;5011414;28;20071;-76
2022/09/08 10:20:21;;;;;;;;;;;17.00;99.90;;;;;;5010813;28;20103;-76
2022/09/08 10:22:47;;;;;;;;;;;16.90;99.90;;;;;;5011819;28;19976;-76
2022/09/08 10:25:45;;;;;;;3.43;1.43;;;17.00;99.90;;;;;;5010939;28;19924;-76
2022/09/08 10:28:29;;;;;;;2.03;1.08;;;16.90;99.90;;;;;;4994770;28;20099;-76
2022/09/08 10:31:20;;;;;;;2.10;0.75;;;16.90;99.90;;;;;;5010943;28;20366;-76
2022/09/08 10:34:20;;;;;;;2.45;1.13;;;16.90;99.90;;;;;;5010979;28;20045;-76
2022/09/08 10:36:51;;;;;;;2.78;0.90;;;16.90;99.90;;;;;;5011060;28;20489;-75
2022/09/08 10:39:40;;;;;;;2.33;0.95;;;16.90;99.90;;;;;;5010545;28;20132;-76
2022/09/08 10:42:35;;;;;;;1.52;1.02;;;16.90;99.90;;;;;;5010362;28;20080;-76
2022/09/08 10:45:39;;;;;;;1.92;1.15;;;16.90;99.90;;;;;;4994228;28;20485;-76
2022/09/08 10:48:07;;;;;;;2.08;0.73;;;16.90;99.90;;;;;;5010658;28;20045;-76
2022/09/08 10:50:35;;;;;;;2.97;1.10;;;16.90;99.90;;;;;;5010050;28;20107;-76
2022/09/08 10:53:25;;;;;;;1.80;0.85;;;16.90;99.90;;;;;;4994114;28;20123;-76
2022/09/08 10:56:25;;;;;;;1.50;0.80;;;16.90;99.90;;;;;;4994020;28;20049;-76
2022/09/08 10:59:15;;;;;;;1.23;0.60;;;16.90;99.90;;;;;;5010883;28;20053;-76
2022/09/08 11:02:26;;;;;;;1.20;0.35;;;16.90;99.90;;;;;;5010150;28;20046;-76
2022/09/08 11:05:13;;;;;;;0.70;0.30;;;16.90;99.90;;;;;;5010186;28;20061;-76
2022/09/08 11:07:56;;;;;;;1.42;0.50;;;16.90;99.90;;;;;;5010153;28;20049;-76
2022/09/08 11:10:50;;;;;;;1.20;0.70;;;16.90;99.90;;;;;;4993631;28;20041;-76
2022/09/08 11:13:43;;;;;;;0.75;0.40;;;16.80;99.90;;;;;;5009943;28;20535;-76
2022/09/08 11:16:38;;;;;;;2.42;0.35;;;16.80;99.90;;;;;;4993689;28;20133;-76
2022/09/08 11:19:25;;;;;;;0.63;0.40;;;16.80;99.90;;;;;;5010332;28;20457;-76
2022/09/08 11:22:21;;;;;;;1.67;0.60;;;16.80;99.90;;;;;;5009900;28;20057;-76
2022/09/08 11:24:59;;;;;;;0.85;0.50;;;16.80;99.90;;;;;;5009842;28;20081;-76
2022/09/08 11:28:04;;;;;;;0.73;0.40;;;16.80;99.90;;;;;;5009990;28;20045;-76
2022/09/08 11:30:48;;;;;;;1.30;0.52;;;16.80;99.90;;;;;;4993430;28;20549;-76
2022/09/08 11:33:27;;;;;;;0.77;0.47;;;16.80;99.90;;;;;;5009006;28;20045;-76
2022/09/08 11:36:27;;;;;;;0.55;0.35;;;16.90;99.90;;;;;;4993748;28;20041;-77
2022/09/08 11:38:57;;;;;;;0.50;0.30;;;16.80;99.90;;;;;;4956797;28;20082;-76
2022/09/08 11:41:40;;;;;;;1.00;0.52;;;16.90;99.90;;;;;;5009635;28;20041;-76
2022/09/08 11:44:38;;;;;;;0.95;0.40;;;16.90;99.90;;;;;;5009520;28;20041;-76
2022/09/08 11:47:45;;;;;;;1.15;0.50;;;16.90;99.90;;;;;;5009760;28;20111;-76
2022/09/08 11:50:35;;;;;;;1.60;0.60;;;17.00;99.90;;;;;;4979755;28;20049;-76
2022/09/08 11:53:25;;;;;;;1.30;0.60;;;16.90;99.90;;;;;;5009352;28;20094;-76
2022/09/08 11:56:09;;;;;;;0.52;0.40;;;16.90;99.90;;;;;;4993429;28;20045;-76
2022/09/08 11:58:53;;;;;;;1.48;0.68;;;16.90;99.90;;;;;;4993419;28;20045;-76
2022/09/08 12:01:31;;;;;;;1.20;0.60;;;17.00;99.90;;;;;;5009748;28;20033;-76
2022/09/08 12:04:15;;;;;;;1.40;0.47;;;17.00;99.90;;;;;;4994877;28;20029;-77
2022/09/08 12:06:56;;;;;;;1.23;0.50;;;17.00;99.90;;;;;;5028913;28;20052;-76
2022/09/08 12:09:40;;;;;;;0.50;0.20;;;17.00;99.90;;;;;;5029277;28;20076;-76
2022/09/08 12:12:33;;;;;;;0.98;0.50;;;17.00;99.90;;;;;;5012816;28;20059;-76
2022/09/08 12:15:14;;;;;;;0.63;0.32;;;17.10;99.90;;;;;;5028711;28;20508;-77
2022/09/08 12:17:55;;;;;;;1.38;0.60;;;17.10;99.90;;;;;;5029156;28;20051;-76
2022/09/08 12:20:32;;;;;;;0.77;0.50;;;17.10;99.90;;;;;;5028995;28;20075;-76
2022/09/08 12:23:29;;;;;;;0.90;0.50;;;17.10;99.90;;;;;;5029192;28;20044;-77
2022/09/08 12:26:19;;;;;;;2.35;0.55;;;17.20;99.90;;;;;;5029384;28;20474;-76
2022/09/08 12:29:07;;;;;;;2.42;0.60;;;17.10;99.90;;;;;;5028939;28;20080;-77
2022/09/08 12:32:08;;;;;;;1.23;0.45;;;17.20;99.90;;;;;;5028689;28;20583;-77
2022/09/08 12:35:12;;;;;;;1.98;0.90;;;17.20;99.90;;;;;;5012343;28;20040;-77
2022/09/08 12:37:38;;;;;;;1.73;0.70;;;17.30;99.90;;;;;;4988581;28;20245;-77
2022/09/08 12:40:19;;;;;;;1.90;0.88;;;17.20;99.90;;;;;;5004914;28;20554;-76
2022/09/08 12:43:03;;;;;;;1.05;0.50;;;17.20;99.90;;;;;;5029345;28;20159;-76
2022/09/08 12:45:39;;;;;;;5.57;1.10;;;17.30;99.90;;;;;;5016034;28;20044;-76
2022/09/08 12:48:24;;;;;;;1.83;1.10;;;17.30;99.90;;;;;;5032672;28;20502;-76
2022/09/08 12:51:00;;;;;;;2.72;0.90;;;17.30;99.90;;;;;;5015947;28;20179;-76
2022/09/08 12:53:45;;;;;;;2.05;1.13;;;17.40;99.90;;;;;;5015881;28;20041;-76
2022/09/08 12:56:26;;;;;;;2.55;1.23;;;17.40;99.90;;;;;;5032638;28;20049;-76
2022/09/08 12:59:15;;;;;;;4.65;1.17;;;17.50;99.90;;;;;;5032336;28;20040;-77
2022/09/08 13:02:03;;;;;;;3.22;1.55;;;17.50;99.90;;;;;;5032363;28;20498;-76
2022/09/08 13:04:44;;;;;;;4.70;1.58;;;17.50;99.90;;;;;;4995637;28;20060;-76
2022/09/08 13:07:19;;;;;;;3.55;1.48;;;17.50;99.90;;;;;;5032279;28;20041;-76
2022/09/08 13:10:14;;;;;;;5.13;2.17;;;17.60;99.90;;;;;;5032255;28;20080;-76
2022/09/08 13:12:48;;;;;;;3.20;1.85;;;17.60;99.90;;;;;;5031969;28;20052;-76
2022/09/08 13:15:39;;;;;;;3.20;1.63;;;17.60;99.90;;;;;;5031943;28;20398;-76
2022/09/08 13:18:07;;;;;;;2.60;1.42;;;17.70;99.90;;;;;;5031895;28;20507;-76
2022/09/08 13:20:50;;;;;;;3.47;1.67;;;17.70;99.90;;;;;;5031676;28;20037;-76
2022/09/08 13:23:15;;;;;;;4.07;1.90;;;17.80;99.90;;;;;;5031725;28;20110;-76
2022/09/08 13:26:22;;;;;;;4.20;1.85;;;17.70;99.90;;;;;;5031694;28;20046;-76
2022/09/08 13:29:16;;;;;;;4.05;1.92;;;17.80;99.90;;;;;;5032178;28;20080;-76
2022/09/08 13:31:48;;;;;;;4.10;2.05;;;17.80;99.90;;;;;;5015296;28;20045;-76
2022/09/08 13:34:44;;;;;;;4.47;2.40;;;17.80;99.90;;;;;;5031476;28;20045;-76
2022/09/08 13:37:28;;;;;;;6.65;2.83;;;17.90;99.90;;;;;;5015476;28;20029;-76
2022/09/08 13:40:11;;;;;;;5.60;2.33;;;17.90;99.90;;;;;;5031905;28;20041;-76
2022/09/08 13:42:57;;;;;;;3.75;1.77;;;17.90;99.90;;;;;;5031247;28;20125;-76
2022/09/08 13:45:43;;;;;;;5.22;2.03;;;18.00;99.90;;;;;;5015212;28;20095;-75
2022/09/08 13:48:41;;;;;;;3.63;1.98;;;18.00;99.90;;;;;;5031706;28;20478;-76
2022/09/08 13:51:50;;;;;;;6.57;2.22;;;18.00;99.90;;;;;;5031231;28;20526;-75
2022/09/08 13:54:25;;;;;;;6.20;2.78;;;18.10;99.90;;;;;;5025063;28;20061;-75
2022/09/08 13:57:09;;;;;;;5.03;2.35;;;18.10;99.90;;;;;;5031369;28;20048;-76
2022/09/08 13:59:35;;;;;;;5.78;2.38;;;18.10;99.90;;;;;;5031099;28;20047;-75
2022/09/08 14:02:15;;;;;;;4.47;2.17;;;18.10;99.90;;;;;;5031205;28;20048;-75
2022/09/08 14:04:44;;;;;;;4.78;2.50;;;18.10;99.90;;;;;;5011217;28;20064;-75
2022/09/08 14:07:24;;;;;;;5.13;2.47;;;18.20;99.90;;;;;;4995236;28;20510;-75
2022/09/08 14:10:14;;;;;;;5.03;2.70;;;18.20;99.90;;;;;;5011170;28;20226;-76
2022/09/08 14:12:58;;;;;;;5.45;2.78;;;18.20;99.90;;;;;;4994757;28;20176;-75
2022/09/08 14:15:27;;;;;;;5.50;2.40;;;18.20;99.90;;;;;;5011086;28;20041;-75
2022/09/08 14:18:19;;;;;;;6.43;2.90;;;18.20;99.90;;;;;;5011076;28;20372;-75
2022/09/08 14:20:55;;;;;;;5.13;2.53;;;18.30;99.90;;;;;;5028826;28;20041;-75
2022/09/08 14:23:48;;;;;;;4.95;2.35;;;18.30;99.90;;;;;;4994726;28;20127;-75
2022/09/08 14:26:22;;;;;;;6.03;2.72;;;18.30;99.90;;;;;;5027449;28;20049;-75
2022/09/08 14:29:07;;;;;;;3.97;2.05;;;18.40;99.90;;;;;;5011152;28;20045;-75
2022/09/08 14:31:47;;;;;;;3.67;2.08;;;18.30;99.90;;;;;;5027381;28;20394;-75
2022/09/08 14:34:31;;;;;;;5.28;2.50;;;18.30;99.90;;;;;;5010750;28;20053;-76
2022/09/08 14:37:09;;;;;;;6.40;3.17;;;18.30;99.90;;;;;;5007389;28;20507;-76
2022/09/08 14:39:54;;;;;;;5.82;3.20;;;18.30;99.90;;;;;;5008766;28;20108;-75
2022/09/08 14:42:37;;;;;;;4.82;2.47;;;18.30;99.90;;;;;;5027040;28;20076;-76
2022/09/08 14:45:15;;;;;;;5.95;2.85;;;18.30;99.90;;;;;;5026723;28;20103;-75
2022/09/08 14:47:44;;;;;;;6.78;3.33;;;18.30;99.90;;;;;;5026984;28;20080;-75
2022/09/08 14:50:26;;;;;;;6.22;2.90;;;18.30;99.90;;;;;;5027358;28;20503;-75
2022/09/08 14:53:07;;;;;;;5.57;2.83;;;18.40;99.90;;;;;;5010621;28;20045;-75
2022/09/08 14:56:03;;;;;;;5.88;2.88;;;18.30;99.90;;;;;;5026643;28;20041;-76
2022/09/08 14:58:59;;;;;;;5.30;2.55;;;18.30;99.90;;;;;;5010400;28;20037;-75
2022/09/08 15:01:38;;;;;;;6.00;2.72;;;18.40;99.90;;;;;;5010526;28;20051;-75
2022/09/08 15:04:24;;;;;;;7.85;2.92;;;18.30;99.90;;;;;;5013187;28;20125;-75
2022/09/08 15:06:54;;;;;;;4.38;2.03;;;18.40;99.90;;;;;;5047854;28;20124;-75
2022/09/08 15:09:19;;;;;;;7.45;3.13;;;18.30;99.90;;;;;;5030321;28;20040;-75
2022/09/08 15:11:48;;;;;;;6.82;2.97;;;18.30;99.90;;;;;;5048244;28;20633;-75
2022/09/08 15:14:31;;;;;;;5.63;2.55;;;18.30;99.90;;;;;;5029407;28;20119;-75
2022/09/08 15:17:06;;;;;;;5.60;2.97;;;18.30;99.90;;;;;;5029774;28;20131;-75